Time;durP1;ratioP1;P1;durP2;ratioP2;P2;SDS_P1;SDS_P2;PMS_P1;PMS_P2;Temp;Humidity;BMP_temperature;BMP_pressure;BME280_temperature;BME280_humidity;BME280_pressure;Samples;Min_cycle;Max_cycle;Signal;HPM_P1;HPM_P2
2022/07/13 00:00:15;;;;;;;;;;;;;;;;;;5121738;27;19916;-83
2022/07/13 00:02:40;;;;;;;;;;;;;;;;;;5120587;28;19920;-85
2022/07/13 00:05:08;;;;;;;;;;;;;;;;;;5116281;28;19916;-84
2022/07/13 00:07:34;;;;;;;;;;;;;;;;;;5115129;28;19916;-83
2022/07/13 00:10:00;;;;;;;;;;;;;;;;;;5110720;28;20000;-85
2022/07/13 00:12:25;;;;;;;;;;;;;;;;;;5108460;28;19916;-84
2022/07/13 00:14:50;;;;;;;;;;;;;;;;;;5107836;28;19916;-84
2022/07/13 00:17:17;;;;;;;;;;;;;;;;;;5106953;28;19916;-84
2022/07/13 00:19:42;;;;;;;;;;;;;;;;;;5107511;28;19916;-84
2022/07/13 00:22:09;;;;;;;;;;;;;;;;;;5106045;28;19920;-83
2022/07/13 00:24:38;;;;;;;;;;;;;;;;;;5106468;28;19958;-85
2022/07/13 00:27:03;;;;;;;;;;;;;;;;;;5103785;28;19917;-84
2022/07/13 00:29:29;;;;;;;;;;;;;;;;;;5100851;28;19938;-85
2022/07/13 00:31:55;;;;;;;;;;;;;;;;;;5100384;28;19916;-84
2022/07/13 00:34:20;;;;;;;;;;;;;;;;;;5100039;28;19982;-84
2022/07/13 00:36:47;;;;;;;;;;;;;;;;;;5098612;28;20329;-84
2022/07/13 00:39:12;;;;;;;;;;;;;;;;;;5119358;28;19915;-87
2022/07/13 00:41:48;;;;;;;;;;;;;;;;;;5121128;28;20355;-85
2022/07/13 00:44:14;;;;;;;;;;;;;;;;;;5120663;28;19920;-86
2022/07/13 00:46:45;;;;;;;;;;;;;;;;;;5119234;28;19916;-87
2022/07/13 00:49:11;;;;;;;;;;;;;;;;;;5122368;28;19920;-85
2022/07/13 00:52:00;;;;;;;;;;;;;;;;;;5125243;28;19915;-86
2022/07/13 00:54:28;;;;;;;;;;;;;;;;;;5126824;28;19980;-85
2022/07/13 00:56:54;;;;;;;;;;;;;;;;;;5126614;28;20010;-85
2022/07/13 00:59:20;;;;;;;;;;;;;;;;;;5126563;28;19916;-90
2022/07/13 01:01:45;;;;;;;;;;;;;;;;;;5126823;28;19946;-83
2022/07/13 01:04:11;;;;;;;;;;;;;;;;;;5124445;28;20332;-84
2022/07/13 01:06:37;;;;;;;;;;;;;;;;;;5124126;28;20269;-84
2022/07/13 01:09:02;;;;;;;;;;;;;;;;;;5124752;28;20379;-85
2022/07/13 01:11:31;;;;;;;;;;;;;;;;;;5125332;28;19919;-85
2022/07/13 01:13:57;;;;;;;;;;;;;;;;;;5109526;28;19920;-85
2022/07/13 01:16:23;;;;;;;;;;;;;;;;;;5102621;28;19952;-85
2022/07/13 01:18:49;;;;;;;;;;;;;;;;;;5105140;28;19920;-84
2022/07/13 01:21:14;;;;;;;;;;;;;;;;;;5108986;28;19916;-84
2022/07/13 01:23:40;;;;;;;;;;;;;;;;;;5110989;28;19979;-84
2022/07/13 01:26:07;;;;;;;;;;;;;;;;;;5111638;28;20011;-86
2022/07/13 01:28:32;;;;;;;;;;;;;;;;;;5111616;28;20018;-83
2022/07/13 01:30:58;;;;;;;;;;;;;;;;;;5110689;28;20386;-84
2022/07/13 01:33:23;;;;;;;;;;;;;;;;;;5112374;28;19983;-84
2022/07/13 01:35:49;;;;;;;;;;;;;;;;;;5110171;28;19942;-83
2022/07/13 01:38:14;;;;;;;;;;;;;;;;;;5108863;28;19965;-85
2022/07/13 01:40:41;;;;;;;;;;;;;;;;;;5110199;28;20283;-84
2022/07/13 01:43:12;;;;;;;;;;;;;;;;;;5110099;28;19916;-85
2022/07/13 01:45:40;;;;;;;;;;;;;;;;;;5110962;28;19916;-84
2022/07/13 01:48:07;;;;;;;;;;;;;;;;;;5091585;28;19917;-84
2022/07/13 01:50:32;;;;;;;;;;;;;;;;;;5108745;28;19916;-84
2022/07/13 01:52:57;;;;;;;;;;;;;;;;;;5107948;28;20291;-85
2022/07/13 01:55:23;;;;;;;;;;;;;;;;;;5109154;28;19976;-84
2022/07/13 01:57:48;;;;;;;;;;;;;;;;;;5107336;28;19927;-85
2022/07/13 02:00:17;;;;;;;;;;;;;;;;;;5108266;28;20329;-87
2022/07/13 02:02:47;;;;;;;;;;;;;;;;;;5106061;28;19916;-87
2022/07/13 02:05:13;;;;;;;;;;;;;;;;;;5103324;28;19982;-88
2022/07/13 02:07:38;;;;;;;;;;;;;;;;;;5104295;28;19942;-89
2022/07/13 02:10:05;;;;;;;;;;;;;;;;;;5105075;28;19920;-92
2022/07/13 02:12:30;;;;;;;;;;;;;;;;;;5106451;28;19916;-84
2022/07/13 02:14:56;;;;;;;;;;;;;;;;;;5106174;28;19922;-86
2022/07/13 02:17:23;;;;;;;;;;;;;;;;;;5087853;28;20002;-86
2022/07/13 02:19:48;;;;;;;;;;;;;;;;;;5106476;28;19942;-86
2022/07/13 02:22:17;;;;;;;;;;;;;;;;;;5106370;28;19916;-89
2022/07/13 02:24:42;;;;;;;;;;;;;;;;;;5103439;28;20371;-87
2022/07/13 02:27:09;;;;;;;;;;;;;;;;;;5104897;28;20014;-87
2022/07/13 02:29:35;;;;;;;;;;;;;;;;;;5104122;28;19924;-87
2022/07/13 02:32:05;;;;;;;;;;;;;;;;;;5102574;28;19916;-89
2022/07/13 02:34:31;;;;;;;;;;;;;;;;;;5103533;28;19923;-89
2022/07/13 02:36:56;;;;;;;;;;;;;;;;;;5103364;28;19916;-87
2022/07/13 02:39:23;;;;;;;;;;;;;;;;;;5104582;28;20410;-89
2022/07/13 02:41:50;;;;;;;;;;;;;;;;;;5103820;28;19946;-86
2022/07/13 02:44:15;;;;;;;;;;;;;;;;;;5103199;28;19917;-88
2022/07/13 02:46:41;;;;;;;;;;;;;;;;;;5102440;28;20053;-85
2022/07/13 02:49:06;;;;;;;;;;;;;;;;;;5105044;28;19916;-86
2022/07/13 02:51:32;;;;;;;;;;;;;;;;;;5106018;28;19935;-84
2022/07/13 02:53:58;;;;;;;;;;;;;;;;;;5107565;28;20287;-84
2022/07/13 02:56:28;;;;;;;;;;;;;;;;;;5110722;28;19923;-84
2022/07/13 02:58:54;;;;;;;;;;;;;;;;;;5109123;28;19923;-84
2022/07/13 03:01:24;;;;;;;;;;;;;;;;;;5111476;28;19916;-83
2022/07/13 03:03:50;;;;;;;;;;;;;;;;;;5110467;28;19920;-84
2022/07/13 03:06:15;;;;;;;;;;;;;;;;;;5107221;28;19920;-85
2022/07/13 03:08:41;;;;;;;;;;;;;;;;;;5109207;28;20433;-85
2022/07/13 03:11:06;;;;;;;;;;;;;;;;;;5110300;28;19923;-84
2022/07/13 03:13:32;;;;;;;;;;;;;;;;;;5108628;28;19916;-85
2022/07/13 03:15:58;;;;;;;;;;;;;;;;;;5108061;28;19916;-83
2022/07/13 03:18:23;;;;;;;;;;;;;;;;;;5111147;28;19979;-84
2022/07/13 03:20:49;;;;;;;;;;;;;;;;;;5104032;28;19951;-88
2022/07/13 03:23:14;;;;;;;;;;;;;;;;;;5101723;28;20002;-84
2022/07/13 03:25:40;;;;;;;;;;;;;;;;;;5098032;28;19916;-93
2022/07/13 03:28:05;;;;;;;;;;;;;;;;;;5100060;28;20456;-88
2022/07/13 03:30:31;;;;;;;;;;;;;;;;;;5100435;28;19939;-86
2022/07/13 03:32:57;;;;;;;;;;;;;;;;;;5099256;28;19916;-87
2022/07/13 03:35:23;;;;;;;;;;;;;;;;;;5105747;28;19923;-84
2022/07/13 03:37:48;;;;;;;;;;;;;;;;;;5100592;28;19965;-88
2022/07/13 03:40:16;;;;;;;;;;;;;;;;;;5099953;28;19916;-89
2022/07/13 03:42:43;;;;;;;;;;;;;;;;;;5119484;28;19923;-88
2022/07/13 03:45:09;;;;;;;;;;;;;;;;;;5118400;28;19922;-85
2022/07/13 03:47:34;;;;;;;;;;;;;;;;;;5098644;28;19916;-91
2022/07/13 03:50:00;;;;;;;;;;;;;;;;;;5094929;28;20441;-87
2022/07/13 03:52:25;;;;;;;;;;;;;;;;;;5097574;28;20386;-85
2022/07/13 03:54:50;;;;;;;;;;;;;;;;;;5097341;28;20359;-83
2022/07/13 03:57:16;;;;;;;;;;;;;;;;;;5101897;28;19924;-86
2022/07/13 03:59:42;;;;;;;;;;;;;;;;;;5096644;28;19916;-85
2022/07/13 04:02:07;;;;;;;;;;;;;;;;;;5107558;28;19920;-85
2022/07/13 04:04:33;;;;;;;;;;;;;;;;;;5096776;28;19923;-83
2022/07/13 04:06:58;;;;;;;;;;;;;;;;;;5095754;28;19926;-83
2022/07/13 04:09:23;;;;;;;;;;;;;;;;;;5096499;28;20383;-83
2022/07/13 04:11:49;;;;;;;;;;;;;;;;;;5099209;28;19916;-85
2022/07/13 04:14:14;;;;;;;;;;;;;;;;;;5095104;28;19916;-83
2022/07/13 04:16:40;;;;;;;;;;;;;;;;;;5095536;28;19916;-84
2022/07/13 04:19:05;;;;;;;;;;;;;;;;;;5096674;28;19916;-83
2022/07/13 04:21:31;;;;;;;;;;;;;;;;;;5094195;28;19924;-83
2022/07/13 04:23:56;;;;;;;;;;;;;;;;;;5097248;28;20030;-84
2022/07/13 04:26:22;;;;;;;;;;;;;;;;;;5103184;28;19973;-85
2022/07/13 04:28:47;;;;;;;;;;;;;;;;;;5111686;28;19954;-84
2022/07/13 04:31:15;;;;;;;;;;;;;;;;;;5130131;28;19915;-94
2022/07/13 04:33:41;;;;;;;;;;;;;;;;;;5127035;28;19916;-86
2022/07/13 04:36:09;;;;;;;;;;;;;;;;;;5107227;28;19979;-86
2022/07/13 04:38:35;;;;;;;;;;;;;;;;;;5103562;28;19987;-92
2022/07/13 04:41:00;;;;;;;;;;;;;;;;;;5114873;28;20341;-94
2022/07/13 04:43:26;;;;;;;;;;;;;;;;;;5115554;28;19922;-85
2022/07/13 04:45:54;;;;;;;;;;;;;;;;;;5099462;28;20082;-84
2022/07/13 04:48:19;;;;;;;;;;;;;;;;;;5108110;28;19920;-90
2022/07/13 04:50:45;;;;;;;;;;;;;;;;;;5106914;28;19920;-90
2022/07/13 04:53:11;;;;;;;;;;;;;;;;;;5104656;28;19920;-86
2022/07/13 04:55:37;;;;;;;;;;;;;;;;;;5112068;28;20006;-91
2022/07/13 04:58:03;;;;;;;;;;;;;;;;;;5125087;28;19969;-87
2022/07/13 05:00:28;;;;;;;;;;;;;;;;;;5125011;28;19919;-90
2022/07/13 05:02:54;;;;;;;;;;;;;;;;;;5111357;28;19939;-88
2022/07/13 05:05:24;;;;;;;;;;;;;;;;;;5121279;28;19915;-89
2022/07/13 05:07:51;;;;;;;;;;;;;;;;;;5115287;28;19958;-88
2022/07/13 05:10:17;;;;;;;;;;;;;;;;;;5115826;28;20378;-88
2022/07/13 05:12:42;;;;;;;;;;;;;;;;;;5110149;28;20014;-89
2022/07/13 05:15:09;;;;;;;;;;;;;;;;;;5115785;28;20005;-83
2022/07/13 05:17:35;;;;;;;;;;;;;;;;;;5109897;28;20456;-85
2022/07/13 05:20:02;;;;;;;;;;;;;;;;;;5096177;28;19916;-90
2022/07/13 05:22:28;;;;;;;;;;;;;;;;;;5095919;28;19948;-89
2022/07/13 05:24:53;;;;;;;;;;;;;;;;;;5096564;28;20371;-86
2022/07/13 05:27:19;;;;;;;;;;;;;;;;;;5094939;28;19916;-91
2022/07/13 05:29:44;;;;;;;;;;;;;;;;;;5094976;28;19916;-91
2022/07/13 05:32:09;;;;;;;;;;;;;;;;;;5096702;28;19916;-86
2022/07/13 05:34:40;;;;;;;;;;;;;;;;;;5099039;28;19923;-88
2022/07/13 05:37:06;;;;;;;;;;;;;;;;;;5102588;28;20360;-85
2022/07/13 05:39:32;;;;;;;;;;;;;;;;;;5100949;28;19928;-87
2022/07/13 05:41:58;;;;;;;;;;;;;;;;;;5098223;28;19962;-84
2022/07/13 05:44:23;;;;;;;;;;;;;;;;;;5096993;28;20291;-85
2022/07/13 05:46:49;;;;;;;;;;;;;;;;;;5098058;28;19928;-85
2022/07/13 05:49:15;;;;;;;;;;;;;;;;;;5095553;28;20007;-87
2022/07/13 05:51:40;;;;;;;;;;;;;;;;;;5095022;28;19916;-85
2022/07/13 05:54:05;;;;;;;;;;;;;;;;;;5096564;28;20356;-86
2022/07/13 05:56:31;;;;;;;;;;;;;;;;;;5095158;28;19962;-87
2022/07/13 05:58:56;;;;;;;;;;;;;;;;;;5095634;28;20011;-86
2022/07/13 06:01:22;;;;;;;;;;;;;;;;;;5099291;28;19962;-87
2022/07/13 06:03:47;;;;;;;;;;;;;;;;;;5099987;28;19927;-85
2022/07/13 06:06:12;;;;;;;;;;;;;;;;;;5101690;28;20373;-85
2022/07/13 06:08:39;;;;;;;;;;;;;;;;;;5117365;28;19924;-85
2022/07/13 06:11:04;;;;;;;;;;;;;;;;;;5119693;28;19916;-84
2022/07/13 06:13:29;;;;;;;;;;;;;;;;;;5119035;28;20412;-84
2022/07/13 06:15:57;;;;;;;;;;;;;;;;;;5119982;28;19915;-83
2022/07/13 06:18:22;;;;;;;;;;;;;;;;;;5121104;28;19923;-84
2022/07/13 06:20:48;;;;;;;;;;;;;;;;;;5118416;28;20293;-85
2022/07/13 06:23:15;;;;;;;;;;;;;;;;;;5120851;28;19915;-85
2022/07/13 06:25:45;;;;;;;;;;;;;;;;;;5122888;28;19915;-87
2022/07/13 06:28:10;;;;;;;;;;;;;;;;;;5126502;28;19916;-85
2022/07/13 06:30:36;;;;;;;;;;;;;;;;;;5124974;28;19977;-86
2022/07/13 06:33:02;;;;;;;;;;;;;;;;;;5124046;28;19916;-86
2022/07/13 06:35:29;;;;;;;;;;;;;;;;;;5127395;28;19923;-86
2022/07/13 06:37:55;;;;;;;;;;;;;;;;;;5125368;28;19919;-86
2022/07/13 06:40:20;;;;;;;;;;;;;;;;;;5126862;28;19922;-85
2022/07/13 06:42:49;;;;;;;;;;;;;;;;;;5128045;28;19916;-86
2022/07/13 06:45:17;;;;;;;;;;;;;;;;;;5126007;28;19916;-85
2022/07/13 06:47:43;;;;;;;;;;;;;;;;;;5127339;28;19916;-85
2022/07/13 06:50:09;;;;;;;;;;;;;;;;;;5122460;28;19942;-87
2022/07/13 06:52:34;;;;;;;;;;;;;;;;;;5112808;28;19924;-87
2022/07/13 06:55:00;;;;;;;;;;;;;;;;;;5121216;28;19938;-88
2022/07/13 06:57:26;;;;;;;;;;;;;;;;;;5105257;28;20290;-84
2022/07/13 06:59:51;;;;;;;;;;;;;;;;;;5096529;28;19916;-84
2022/07/13 07:02:17;;;;;;;;;;;;;;;;;;5113959;28;19916;-83
2022/07/13 07:04:42;;;;;;;;;;;;;;;;;;5114569;28;19997;-84
2022/07/13 07:07:09;;;;;;;;;;;;;;;;;;5114511;28;19923;-85
2022/07/13 07:09:35;;;;;;;;;;;;;;;;;;5101058;28;19947;-85
2022/07/13 07:12:00;;;;;;;;;;;;;;;;;;5099922;28;20359;-84
2022/07/13 07:14:25;;;;;;;;;;;;;;;;;;5095891;28;19992;-85
2022/07/13 07:16:53;;;;;;;;;;;;;;;;;;5094106;28;20002;-85
2022/07/13 07:19:18;;;;;;;;;;;;;;;;;;5094250;28;19965;-85
2022/07/13 07:21:44;;;;;;;;;;;;;;;;;;5113912;28;20313;-85
2022/07/13 07:24:09;;;;;;;;;;;;;;;;;;5106700;28;20301;-84
2022/07/13 07:26:35;;;;;;;;;;;;;;;;;;5099069;28;19920;-86
2022/07/13 07:29:00;;;;;;;;;;;;;;;;;;5098645;28;19977;-83
2022/07/13 07:31:25;;;;;;;;;;;;;;;;;;5097734;28;20393;-88
2022/07/13 07:33:52;;;;;;;;;;;;;;;;;;5096232;28;19916;-85
2022/07/13 07:36:17;;;;;;;;;;;;;;;;;;5101448;28;19916;-85
2022/07/13 07:38:47;;;;;;;;;;;;;;;;;;5100602;28;19978;-85
2022/07/13 07:41:13;;;;;;;;;;;;;;;;;;5112485;28;19928;-85
2022/07/13 07:43:38;;;;;;;;;;;;;;;;;;5110428;28;20429;-83
2022/07/13 07:46:04;;;;;;;;;;;;;;;;;;5107660;28;19927;-83
2022/07/13 07:48:29;;;;;;;;;;;;;;;;;;5103681;28;19987;-85
2022/07/13 07:50:55;;;;;;;;;;;;;;;;;;5111557;28;19919;-84
2022/07/13 07:53:21;;;;;;;;;;;;;;;;;;5105434;28;19920;-84
2022/07/13 07:55:47;;;;;;;;;;;;;;;;;;5110340;28;19980;-84
2022/07/13 07:58:13;;;;;;;;;;;;;;;;;;5103889;28;20293;-85
2022/07/13 08:00:39;;;;;;;;;;;;;;;;;;5107028;28;19923;-84
2022/07/13 08:03:06;;;;;;;;;;;;;;;;;;5107515;28;20341;-85
2022/07/13 08:05:31;;;;;;;;;;;;;;;;;;5104272;28;20007;-83
2022/07/13 08:07:57;;;;;;;;;;;;;;;;;;5103365;28;20385;-84
2022/07/13 08:10:22;;;;;;;;;;;;;;;;;;5097703;28;19920;-83
2022/07/13 08:12:48;;;;;;;;;;;;;;;;;;5099384;28;19959;-84
2022/07/13 08:15:14;;;;;;;;;;;;;;;;;;5105591;28;19942;-84
2022/07/13 08:17:39;;;;;;;;;;;;;;;;;;5100549;28;19924;-85
2022/07/13 08:20:08;;;;;;;;;;;;;;;;;;5104114;28;19962;-84
2022/07/13 08:22:34;;;;;;;;;;;;;;;;;;5101768;28;19999;-85
2022/07/13 08:25:00;;;;;;;;;;;;;;;;;;5115249;28;20306;-84
2022/07/13 08:27:26;;;;;;;;;;;;;;;;;;5097606;28;19923;-83
2022/07/13 08:29:51;;;;;;;;;;;;;;;;;;5096134;28;19916;-84
2022/07/13 08:32:17;;;;;;;;;;;;;;;;;;5096799;28;19923;-83
2022/07/13 08:40:11;;;;;;;;;;;;;;;;;;5096727;28;19978;-84
2022/07/13 08:42:36;;;;;;;;;;;;;;;;;;5094961;28;19916;-84
2022/07/13 08:45:02;;;;;;;;;;;;;;;;;;5096061;28;20290;-83
2022/07/13 08:47:29;;;;;;;;;;;;;;;;;;5094409;28;19916;-83
2022/07/13 08:49:57;;;;;;;;;;;;;;;;;;5104396;28;19916;-84
2022/07/13 08:52:23;;;;;;;;;;;;;;;;;;5114190;28;19937;-84
2022/07/13 08:54:48;;;;;;;;;;;;;;;;;;5114945;28;19900;-93
2022/07/13 08:57:17;;;;;;;;;;;;;;;;;;5138687;28;19958;-94
2022/07/13 08:59:42;;;;;;;;;;;;;;;;;;5133736;28;19991;-89
2022/07/13 09:02:09;;;;;;;;;;;;;;;;;;5109852;28;20124;-84
2022/07/13 09:04:39;;;;;;;;;;;;;;;;;;5110869;28;19923;-85
2022/07/13 09:07:11;;;;;;;;;;;;;;;;;;5109397;28;19916;-83
2022/07/13 09:09:38;;;;;;;;;;;;;;;;;;5104412;28;19924;-84
2022/07/13 09:12:16;;;;;;;;;;;;;;;;;;5108196;28;19920;-90
2022/07/13 09:14:42;;;;;;;;;;;;;;;;;;5106185;28;19938;-85
2022/07/13 09:17:08;;;;;;;;;;;;;;;;;;5108133;28;19956;-84
2022/07/13 09:19:35;;;;;;;;;;;;;;;;;;5099310;28;19926;-85
2022/07/13 09:22:08;;;;;;;;;;;;;;;;;;5106600;28;19922;-88
2022/07/13 09:24:43;;;;;;;;;;;;;;;;;;5106571;28;19924;-88
2022/07/13 09:27:09;;;;;;;;;;;;;;;;;;5107697;28;19924;-87
2022/07/13 09:29:36;;;;;;;;;;;;;;;;;;5103258;28;20394;-85
2022/07/13 09:32:04;;;;;;;;;;;;;;;;;;5106623;28;20036;-88
2022/07/13 09:34:46;;;;;;;;;;;;;;;;;;5103457;28;19916;-84
2022/07/13 09:37:12;;;;;;;;;;;;;;;;;;5103529;28;19924;-85
2022/07/13 09:39:56;;;;;;;;;;;;;;;;;;5105994;28;19924;-84
2022/07/13 09:42:26;;;;;;;;;;;;;;;;;;5105370;28;19970;-89
2022/07/13 09:47:46;;;;;;;;;;;;;;;;;;5109699;28;19985;-84
2022/07/13 09:50:12;;;;;;;;;;;;;;;;;;5098998;28;20018;-84
2022/07/13 09:52:37;;;;;;;;;;;;;;;;;;5103778;28;19954;-85
2022/07/13 09:55:04;;;;;;;;;;;;;;;;;;5103597;28;19969;-86
2022/07/13 09:57:32;;;;;;;;;;;;;;;;;;5097995;28;19917;-84
2022/07/13 09:59:59;;;;;;;;;;;;;;;;;;5115747;28;19920;-84
2022/07/13 10:02:26;;;;;;;;;;;;;;;;;;5119402;28;19965;-86
2022/07/13 10:04:52;;;;;;;;;;;;;;;;;;5118544;28;20442;-84
2022/07/13 10:07:17;;;;;;;;;;;;;;;;;;5118806;28;19951;-86
2022/07/13 10:09:43;;;;;;;;;;;;;;;;;;5118291;28;20286;-83
2022/07/13 10:12:10;;;;;;;;;;;;;;;;;;5121730;28;19920;-84
2022/07/13 10:14:36;;;;;;;;;;;;;;;;;;5119478;28;19919;-84
2022/07/13 10:17:06;;;;;;;;;;;;;;;;;;5123109;28;19916;-86
2022/07/13 10:19:32;;;;;;;;;;;;;;;;;;5120550;28;19916;-84
2022/07/13 10:22:06;;;;;;;;;;;;;;;;;;5121305;28;20014;-84
2022/07/13 10:24:32;;;;;;;;;;;;;;;;;;5120273;28;19922;-85
2022/07/13 10:27:17;;;;;;;;;;;;;;;;;;5119590;27;19920;-86
2022/07/13 10:29:47;;;;;;;;;;;;;;;;;;5121314;28;20294;-84
2022/07/13 10:32:15;;;;;;;;;;;;;;;;;;5120324;28;19955;-85
2022/07/13 10:34:51;;;;;;;;;;;;;;;;;;5100534;28;20007;-84
2022/07/13 10:37:17;;;;;;;;;;;;;;;;;;5097462;28;19916;-85
2022/07/13 10:40:02;;;;;;;;;;;;;;;;;;5099829;28;20026;-86
2022/07/13 10:42:27;;;;;;;;;;;;;;;;;;5104914;28;19920;-86
2022/07/13 10:44:53;;;;;;;;;;;;;;;;;;5116294;28;19926;-86
2022/07/13 10:47:20;;;;;;;;;;;;;;;;;;5113236;28;19960;-86
2022/07/13 10:49:51;;;;;;;;;;;;;;;;;;5100727;28;19916;-86
2022/07/13 10:52:19;;;;;;;;;;;;;;;;;;5109768;28;20437;-85
2022/07/13 10:55:03;;;;;;;;;;;;;;;;;;5111630;28;19912;-86
2022/07/13 10:57:33;;;;;;;;;;;;;;;;;;5098535;28;19916;-87
2022/07/13 11:00:28;;;;;;;;;;;;;;;;;;5104225;28;19970;-85
2022/07/13 11:03:04;;;;;;;;;;;;;;;;;;5107527;28;19916;-85
2022/07/13 11:05:33;;;;;;;;;;;;;;;;;;5107594;28;19920;-86
2022/07/13 11:08:12;;;;;;;;;;;;;;;;;;5114722;28;20367;-87
2022/07/13 11:10:38;;;;;;;;;;;;;;;;;;5113008;28;19916;-87
2022/07/13 11:13:23;;;;;;;;;;;;;;;;;;5127966;22;20058;-87
2022/07/13 11:15:52;;;;;;;;;;;;;;;;;;5084961;28;19917;-87
2022/07/13 11:18:21;;;;;;;;;;;;;;;;;;5074820;28;19916;-87
2022/07/13 11:20:57;;;;;;;;;;;;;;;;;;5088949;28;19917;-89
2022/07/13 11:26:39;;;;;;;;;;;;;;;;;;5043261;28;19916;-86
2022/07/13 11:29:23;;;;;;;;;;;;;;;;;;5065248;28;19916;-85
2022/07/13 11:31:56;;;;;;;;;;;;;;;;;;5062409;28;20007;-88
2022/07/13 11:34:21;;;;;;;;;;;;;;;;;;5065101;28;19924;-88
2022/07/13 11:36:47;;;;;;;;;;;;;;;;;;5096990;22;19925;-88
2022/07/13 11:39:26;;;;;;;;;;;;;;;;;;5074184;28;19943;-88
2022/07/13 11:41:53;;;;;;;;;;;;;;;;;;5096622;28;19920;-89
2022/07/13 11:44:24;;;;;;;;;;;;;;;;;;5054687;28;19923;-88
2022/07/13 11:46:50;;;;;;;;;;;;;;;;;;5061675;28;20004;-86
2022/07/13 11:49:33;;;;;;;;;;;;;;;;;;5068193;28;20022;-86
2022/07/13 11:51:58;;;;;;;;;;;;;;;;;;5079867;28;20295;-86
2022/07/13 11:54:33;;;;;;;;;;;;;;;;;;5082591;28;19917;-86
2022/07/13 11:56:59;;;;;;;;;;;;;;;;;;5079421;28;19920;-87
2022/07/13 11:59:34;;;;;;;;;;;;;;;;;;5083828;28;19905;-86
2022/07/13 12:02:02;;;;;;;;;;;;;;;;;;5078240;28;19971;-86
2022/07/13 12:04:27;;;;;;;;;;;;;;;;;;5083588;28;19924;-87
2022/07/13 12:07:13;;;;;;;;;;;;;;;;;;5086721;28;19916;-88
2022/07/13 12:09:56;;;;;;;;;;;;;;;;;;5093732;28;19932;-87
2022/07/13 12:12:50;;;;;;;;;;;;;;;;;;5089921;28;19921;-87
2022/07/13 12:15:42;;;;;;;;;;;;;;;;;;5071834;28;19988;-87
2022/07/13 12:18:09;;;;;;;;;;;;;;;;;;5071987;28;19924;-87
2022/07/13 12:20:34;;;;;;;;;;;;;;;;;;5063419;28;19940;-87
2022/07/13 12:23:00;;;;;;;;;;;;;;;;;;5080078;28;19947;-87
2022/07/13 12:25:31;;;;;;;;;;;;;;;;;;5079060;28;20360;-87
2022/07/13 12:28:00;;;;;;;;;;;;;;;;;;5077381;28;20422;-87
2022/07/13 12:30:26;;;;;;;;;;;;;;;;;;5079654;28;19999;-87
2022/07/13 12:32:59;;;;;;;;;;;;;;;;;;5075016;28;19932;-86
2022/07/13 12:35:28;;;;;;;;;;;;;;;;;;5079019;28;19916;-87
2022/07/13 12:37:54;;;;;;;;;;;;;;;;;;5073143;28;19967;-87
2022/07/13 12:40:39;;;;;;;;;;;;;;;;;;5083301;28;19920;-87
2022/07/13 12:43:05;;;;;;;;;;;;;;;;;;5079725;28;19920;-87
2022/07/13 12:45:33;;;;;;;;;;;;;;;;;;5090941;28;19954;-87
2022/07/13 12:47:58;;;;;;;;;;;;;;;;;;5080080;28;19916;-87
2022/07/13 12:50:30;;;;;;;;;;;;;;;;;;5079614;28;19925;-87
2022/07/13 12:53:02;;;;;;;;;;;;;;;;;;5053033;28;20348;-87
2022/07/13 12:55:27;;;;;;;;;;;;;;;;;;5076677;28;19951;-86
2022/07/13 12:57:53;;;;;;;;;;;;;;;;;;5075532;28;20384;-88
2022/07/13 13:00:22;;;;;;;;;;;;;;;;;;5057372;28;19916;-88
2022/07/13 13:02:48;;;;;;;;;;;;;;;;;;5072461;28;19922;-88
2022/07/13 13:05:14;;;;;;;;;;;;;;;;;;5056371;28;19952;-88
2022/07/13 13:07:39;;;;;;;;;;;;;;;;;;5066998;28;19916;-87
2022/07/13 13:10:05;;;;;;;;;;;;;;;;;;5072617;28;19917;-86
2022/07/13 13:12:31;;;;;;;;;;;;;;;;;;5075869;28;19920;-86
2022/07/13 13:14:58;;;;;;;;;;;;;;;;;;5080200;28;19922;-86
2022/07/13 13:17:24;;;;;;;;;;;;;;;;;;5062539;28;19917;-85
2022/07/13 13:19:50;;;;;;;;;;;;;;;;;;5063443;28;19923;-86
2022/07/13 13:22:15;;;;;;;;;;;;;;;;;;5078494;28;20269;-85
2022/07/13 13:24:41;;;;;;;;;;;;;;;;;;5078709;28;20387;-85
2022/07/13 13:27:06;;;;;;;;;;;;;;;;;;5078844;28;19924;-86
2022/07/13 13:32:16;;;;;;;;;;;;;;;;;;5072693;28;19996;-86
2022/07/13 13:34:42;;;;;;;;;;;;;;;;;;5069343;28;19951;-87
2022/07/13 13:37:07;;;;;;;;;;;;;;;;;;5071811;28;20376;-88
2022/07/13 13:39:32;;;;;;;;;;;;;;;;;;5080854;28;19955;-87
2022/07/13 13:41:58;;;;;;;;;;;;;;;;;;5089147;28;19924;-87
2022/07/13 13:44:23;;;;;;;;;;;;;;;;;;5069525;28;19920;-87
2022/07/13 13:46:49;;;;;;;;;;;;;;;;;;5083190;28;19916;-87
2022/07/13 13:49:14;;;;;;;;;;;;;;;;;;5065385;28;20428;-89
2022/07/13 13:51:40;;;;;;;;;;;;;;;;;;5059589;28;20399;-87
2022/07/13 13:54:06;;;;;;;;;;;;;;;;;;5076330;28;19924;-87
2022/07/13 13:56:55;;;;;;;;;;;;;;;;;;5071950;28;19904;-88
2022/07/13 13:59:20;;;;;;;;;;;;;;;;;;5082468;28;19923;-87
2022/07/13 14:01:46;;;;;;;;;;;;;;;;;;5086223;28;19917;-87
2022/07/13 14:04:14;;;;;;;;;;;;;;;;;;5083928;28;19954;-87
2022/07/13 14:06:39;;;;;;;;;;;;;;;;;;5091821;28;19921;-88
2022/07/13 14:09:05;;;;;;;;;;;;;;;;;;5068262;28;19923;-87
2022/07/13 14:11:30;;;;;;;;;;;;;;;;;;5084696;28;19927;-87
2022/07/13 14:13:56;;;;;;;;;;;;;;;;;;5086985;28;19928;-90
2022/07/13 14:16:21;;;;;;;;;;;;;;;;;;5077762;28;19927;-88
2022/07/13 14:18:47;;;;;;;;;;;;;;;;;;5064069;28;19917;-87
2022/07/13 14:21:12;;;;;;;;;;;;;;;;;;5091163;28;19917;-88
2022/07/13 14:23:37;;;;;;;;;;;;;;;;;;5092073;28;19928;-89
2022/07/13 14:26:04;;;;;;;;;;;;;;;;;;5090475;28;19923;-87
2022/07/13 14:28:32;;;;;;;;;;;;;;;;;;5091805;28;19896;-88
2022/07/13 14:31:07;;;;;;;;;;;;;;;;;;5098766;23;19924;-87
2022/07/13 14:33:32;;;;;;;;;;;;;;;;;;5092467;28;19920;-86
2022/07/13 14:36:08;;;;;;;;;;;;;;;;;;5093748;28;19913;-89
2022/07/13 14:38:34;;;;;;;;;;;;;;;;;;5091307;28;19900;-85
2022/07/13 14:41:30;;;;;;;;;;;;;;;;;;5089002;28;19916;-86
2022/07/13 14:44:15;;;;;;;;;;;;;;;;;;5039392;28;19948;-86
2022/07/13 14:46:41;;;;;;;;;;;;;;;;;;5092518;28;19908;-87
2022/07/13 14:49:11;;;;;;;;;;;;;;;;;;5069700;28;19921;-87
2022/07/13 14:51:45;;;;;;;;;;;;;;;;;;5089249;28;19932;-88
2022/07/13 14:54:11;;;;;;;;;;;;;;;;;;5090335;28;19917;-88
2022/07/13 14:56:36;;;;;;;;;;;;;;;;;;5093073;28;19900;-90
2022/07/13 14:59:15;;;;;;;;;;;;;;;;;;5084755;28;19924;-88
2022/07/13 15:01:41;;;;;;;;;;;;;;;;;;5090969;28;19951;-87
2022/07/13 15:04:09;;;;;;;;;;;;;;;;;;5078607;28;19920;-88
2022/07/13 15:19:24;;;;;;;;;;;;;;;;;;5117143;27;2294051;-87
2022/07/13 15:21:51;;;;;;;;;;;;;;;;;;5195696;27;19919;-90
2022/07/13 15:24:17;;;;;;;;;;;;;;;;;;5201051;27;20285;-86
2022/07/13 15:26:42;;;;;;;;;;;;;;;;;;5185476;27;19921;-87
2022/07/13 15:29:08;;;;;;;;;;;;;;;;;;5194804;27;19979;-88
2022/07/13 15:31:34;;;;;;;;;;;;;;;;;;5179601;27;20037;-89
2022/07/13 15:33:59;;;;;;;;;;;;;;;;;;5164511;27;20377;-93
2022/07/13 15:36:26;;;;;;;;;;;;;;;;;;5159323;27;20373;-90
2022/07/13 15:38:52;;;;;;;;;;;;;;;;;;5180764;27;19915;-89
2022/07/13 15:41:27;;;;;;;;;;;;;;;;;;5166839;27;19922;-87
2022/07/13 15:43:57;;;;;;;;;;;;;;;;;;5185176;27;19915;-87
2022/07/13 15:46:25;;;;;;;;;;;;;;;;;;5180498;27;19927;-89
2022/07/13 15:48:51;;;;;;;;;;;;;;;;;;5185706;27;19919;-88
2022/07/13 15:51:27;;;;;;;;;;;;;;;;;;5188791;27;19915;-88
2022/07/13 15:53:55;;;;;;;;;;;;;;;;;;5187083;27;20362;-88
2022/07/13 15:56:21;;;;;;;;;;;;;;;;;;5182535;27;19953;-91
2022/07/13 15:58:48;;;;;;;;;;;;;;;;;;5181123;27;19911;-88
2022/07/13 16:01:15;;;;;;;;;;;;;;;;;;5162702;27;20288;-86
2022/07/13 16:03:40;;;;;;;;;;;;;;;;;;5182858;27;19996;-86
2022/07/13 16:06:06;;;;;;;;;;;;;;;;;;5195669;27;19946;-87
2022/07/13 16:08:32;;;;;;;;;;;;;;;;;;5203896;27;19946;-88
2022/07/13 16:11:00;;;;;;;;;;;;;;;;;;5202275;27;19993;-87
2022/07/13 16:13:25;;;;;;;;;;;;;;;;;;5175550;27;19925;-88
2022/07/13 16:15:53;;;;;;;;;;;;;;;;;;5201527;27;19930;-87
2022/07/13 16:18:18;;;;;;;;;;;;;;;;;;5177850;27;20049;-86
2022/07/13 16:20:45;;;;;;;;;;;;;;;;;;5152599;27;19930;-87
2022/07/13 16:23:11;;;;;;;;;;;;;;;;;;5157770;27;19919;-87
2022/07/13 16:25:36;;;;;;;;;;;;;;;;;;5168758;27;19922;-87
2022/07/13 16:28:02;;;;;;;;;;;;;;;;;;5168992;27;20271;-88
2022/07/13 16:30:27;;;;;;;;;;;;;;;;;;5169574;27;19922;-89
2022/07/13 16:32:55;;;;;;;;;;;;;;;;;;5162849;27;19915;-91
2022/07/13 16:35:22;;;;;;;;;;;;;;;;;;5162944;27;20014;-87
2022/07/13 16:37:49;;;;;;;;;;;;;;;;;;5165757;27;19923;-93
2022/07/13 16:40:24;;;;;;;;;;;;;;;;;;5164617;27;19915;-88
2022/07/13 16:42:50;;;;;;;;;;;;;;;;;;5167244;27;19958;-85
2022/07/13 16:45:18;;;;;;;;;;;;;;;;;;5159470;27;19922;-86
2022/07/13 16:47:44;;;;;;;;;;;;;;;;;;5157997;27;20001;-87
2022/07/13 16:50:10;;;;;;;;;;;;;;;;;;5153279;27;19954;-86
2022/07/13 16:52:35;;;;;;;;;;;;;;;;;;5137369;27;19931;-86
2022/07/13 16:55:01;;;;;;;;;;;;;;;;;;5152467;27;19928;-87
2022/07/13 16:57:26;;;;;;;;;;;;;;;;;;5163413;27;19922;-86
2022/07/13 16:59:52;;;;;;;;;;;;;;;;;;5162899;27;19922;-87
2022/07/13 17:02:17;;;;;;;;;;;;;;;;;;5161125;27;19978;-87
2022/07/13 17:04:43;;;;;;;;;;;;;;;;;;5163701;27;19922;-86
2022/07/13 17:07:09;;;;;;;;;;;;;;;;;;5151139;27;19967;-86
2022/07/13 17:09:34;;;;;;;;;;;;;;;;;;5144260;27;19942;-89
2022/07/13 17:12:08;;;;;;;;;;;;;;;;;;5146546;27;19915;-88
2022/07/13 17:14:35;;;;;;;;;;;;;;;;;;5150774;27;19915;-87